Time;durP1;ratioP1;P1;durP2;ratioP2;P2;SDS_P1;SDS_P2;PMS_P1;PMS_P2;Temp;Humidity;BMP_temperature;BMP_pressure;BME280_temperature;BME280_humidity;BME280_pressure;Samples;Min_cycle;Max_cycle;Signal;HPM_P1;HPM_P2
2022/03/25 00:01:55;;;;;;;14.90;9.00;;;;;;;6.93;55.82;101294.19;5022298;28;20061;-59
2022/03/25 00:04:26;;;;;;;17.25;9.63;;;;;;;7.00;56.13;101303.81;5021372;28;20133;-59
2022/03/25 00:06:56;;;;;;;28.50;13.02;;;;;;;7.13;56.01;101303.16;5032964;28;20065;-58
2022/03/25 00:09:27;;;;;;;23.88;11.55;;;;;;;7.21;55.24;101303.25;5022247;28;20084;-58
2022/03/25 00:11:57;;;;;;;19.38;11.10;;;;;;;7.29;55.23;101296.44;5030286;28;20121;-59
2022/03/25 00:14:28;;;;;;;21.88;9.68;;;;;;;7.49;54.00;101309.72;5028705;28;20124;-59
2022/03/25 00:17:01;;;;;;;17.10;9.15;;;;;;;7.44;54.06;101303.56;5022216;28;20324;-60
2022/03/25 00:19:32;;;;;;;19.33;9.02;;;;;;;7.49;53.55;101307.13;5020684;28;20096;-59
2022/03/25 00:22:02;;;;;;;21.52;8.25;;;;;;;7.42;53.73;101315.69;5021398;28;20081;-60
2022/03/25 00:24:33;;;;;;;15.02;6.97;;;;;;;7.44;53.45;101313.97;5020674;28;20112;-60
2022/03/25 00:27:04;;;;;;;19.35;8.48;;;;;;;7.44;53.27;101308.75;5036139;28;20072;-59
2022/03/25 00:29:35;;;;;;;17.27;6.97;;;;;;;7.54;53.09;101313.25;5039965;28;20053;-59
2022/03/25 00:32:08;;;;;;;14.13;6.78;;;;;;;7.66;52.86;101316.00;5040392;28;20113;-60
2022/03/25 00:34:39;;;;;;;8.90;5.18;;;;;;;7.69;52.76;101316.03;5039883;28;20072;-59
2022/03/25 00:37:09;;;;;;;8.30;4.70;;;;;;;7.74;52.57;101319.56;5039940;28;20108;-59
2022/03/25 00:39:40;;;;;;;12.75;6.07;;;;;;;7.84;52.47;101319.66;5039778;28;20053;-59
2022/03/25 00:42:13;;;;;;;9.00;4.70;;;;;;;7.96;52.58;101314.59;5040052;28;20116;-61
2022/03/25 00:44:44;;;;;;;8.32;4.70;;;;;;;8.00;51.59;101311.19;5039758;28;20063;-60
2022/03/25 00:47:17;;;;;;;15.00;5.43;;;;;;;7.96;51.38;101314.59;5036978;28;20523;-60
2022/03/25 00:49:47;;;;;;;10.65;4.85;;;;;;;7.97;51.64;101327.63;5021178;28;20221;-60
2022/03/25 00:52:19;;;;;;;8.43;4.55;;;;;;;8.09;51.88;101319.09;5019693;28;20332;-59
2022/03/25 00:54:50;;;;;;;9.18;4.50;;;;;;;8.22;50.89;101320.09;5019796;28;20340;-60
2022/03/25 00:57:21;;;;;;;9.57;4.20;;;;;;;8.13;50.48;101318.25;5019456;28;20052;-60
2022/03/25 00:59:53;;;;;;;6.03;3.90;;;;;;;8.22;50.77;101322.69;5037736;28;20065;-62
2022/03/25 01:02:26;;;;;;;9.13;4.47;;;;;;;8.18;50.03;101305.28;5038940;28;20053;-61
2022/03/25 01:04:57;;;;;;;6.82;4.10;;;;;;;8.35;50.58;101308.06;5033275;28;20049;-62
2022/03/25 01:07:27;;;;;;;8.35;4.28;;;;;;;8.41;50.35;101309.03;5033938;28;20112;-61
2022/03/25 01:09:58;;;;;;;7.10;4.38;;;;;;;7.90;50.43;101226.06;5039018;28;20116;-61
2022/03/25 01:12:29;;;;;;;11.05;5.47;;;;;;;8.42;50.12;101295.16;5039343;28;20089;-61
2022/03/25 01:14:59;;;;;;;11.57;4.90;;;;;;;8.14;50.54;101299.19;5038704;28;20340;-61
2022/03/25 01:17:32;;;;;;;6.47;3.65;;;;;;;8.11;50.28;101267.94;5038669;28;20117;-61
2022/03/25 01:20:03;;;;;;;7.03;4.15;;;;;;;8.35;50.79;101302.84;5038628;28;20049;-61
2022/03/25 01:22:34;;;;;;;12.80;5.13;;;;;;;8.49;49.98;101303.03;5039066;28;20266;-61
2022/03/25 01:25:06;;;;;;;8.52;5.30;;;;;;;8.38;49.86;101261.22;5037934;28;20060;-60
2022/03/25 01:27:37;;;;;;;18.65;7.90;;;;;;;8.60;49.61;101296.16;5038906;28;20057;-62
2022/03/25 01:30:10;;;;;;;8.57;4.90;;;;;;;8.58;49.00;101292.66;5038930;28;20053;-62
2022/03/25 01:32:42;;;;;;;8.82;5.10;;;;;;;8.50;48.73;101297.81;5038816;28;20063;-62
2022/03/25 01:35:13;;;;;;;16.27;5.45;;;;;;;8.37;48.97;101296.81;5037597;28;20044;-61
2022/03/25 01:37:45;;;;;;;11.40;6.70;;;;;;;8.29;48.81;101297.59;5038260;28;20049;-62
2022/03/25 01:40:16;;;;;;;9.60;4.55;;;;;;;8.36;49.30;101294.16;5038464;28;20049;-62
2022/03/25 01:42:46;;;;;;;15.60;5.63;;;;;;;8.42;48.93;101289.06;5037415;28;20045;-62
2022/03/25 01:45:31;;;;;;;6.07;3.90;;;;;;;8.43;48.61;101285.59;5037905;28;20112;-62
2022/03/25 01:48:09;;;;;;;8.80;4.15;;;;;;;8.41;48.65;101282.09;5038668;28;20240;-63
2022/03/25 01:50:43;;;;;;;10.20;4.50;;;;;;;8.32;49.07;101272.44;5038818;28;20060;-63
2022/03/25 01:53:15;;;;;;;9.68;4.72;;;;;;;8.46;49.29;101272.59;5038588;28;20045;-63
2022/03/25 01:55:53;;;;;;;11.60;4.97;;;;;;;8.44;48.52;101250.91;5038682;28;20061;-62
2022/03/25 01:58:24;;;;;;;9.57;4.55;;;;;;;8.49;48.69;101264.81;5038481;28;20074;-63
2022/03/25 02:00:56;;;;;;;11.00;4.32;;;;;;;8.34;48.85;101259.47;5038410;28;20111;-62
2022/03/25 02:03:31;;;;;;;10.90;4.40;;;;;;;7.97;48.68;101207.91;5038412;28;20053;-62
2022/03/25 02:06:02;;;;;;;10.85;6.55;;;;;;;7.97;49.42;101207.06;5038426;28;20057;-62
2022/03/25 02:08:32;;;;;;;10.82;4.72;;;;;;;8.42;48.89;101263.03;5037666;28;20637;-63
2022/03/25 02:11:04;;;;;;;17.65;6.78;;;;;;;7.70;48.83;101151.28;5036437;28;20133;-63
2022/03/25 02:13:35;;;;;;;10.13;5.00;;;;;;;8.25;49.44;101264.56;5026624;28;20054;-64
2022/03/25 02:16:07;;;;;;;13.20;6.13;;;;;;;8.19;49.70;101255.84;5017840;28;20069;-64
2022/03/25 02:18:40;;;;;;;12.18;5.60;;;;;;;8.29;49.98;101255.94;5018486;28;20058;-64
2022/03/25 02:21:10;;;;;;;12.60;5.95;;;;;;;8.28;49.67;101248.97;5025080;28;20389;-64
2022/03/25 02:23:42;;;;;;;9.80;5.03;;;;;;;8.15;50.04;101215.00;5026210;28;20124;-63
2022/03/25 02:26:13;;;;;;;10.45;4.72;;;;;;;8.29;49.61;101250.72;5018208;28;20233;-64
2022/03/25 02:28:44;;;;;;;5.65;3.75;;;;;;;8.39;49.52;101248.25;5028358;28;20079;-64
2022/03/25 02:31:17;;;;;;;8.50;3.92;;;;;;;8.34;48.39;101249.03;5034259;28;20051;-64
2022/03/25 02:33:47;;;;;;;9.00;4.22;;;;;;;8.35;48.59;101255.97;5033056;28;20053;-64
2022/03/25 02:36:18;;;;;;;7.07;3.65;;;;;;;8.43;48.24;101250.00;5034285;28;20083;-64
2022/03/25 02:38:50;;;;;;;9.18;3.25;;;;;;;8.43;47.88;101256.94;5033629;28;20209;-65
2022/03/25 02:41:21;;;;;;;8.45;3.70;;;;;;;8.45;47.96;101252.63;5033295;28;20060;-65
2022/03/25 02:43:52;;;;;;;6.50;3.47;;;;;;;8.48;47.74;101246.56;5033594;28;20068;-65
2022/03/25 02:46:23;;;;;;;7.65;3.47;;;;;;;8.48;48.19;101242.22;5033710;28;20108;-65
2022/03/25 02:48:53;;;;;;;11.27;3.95;;;;;;;8.40;48.18;101243.91;5033915;28;20046;-65
2022/03/25 02:51:24;;;;;;;6.53;3.85;;;;;;;8.43;48.71;101249.13;5033908;28;20124;-65
2022/03/25 02:53:57;;;;;;;7.15;3.85;;;;;;;8.59;48.37;101235.38;5032699;28;20116;-65
2022/03/25 02:56:28;;;;;;;10.65;3.88;;;;;;;8.30;48.23;101231.63;5034063;28;20820;-66
2022/03/25 02:58:59;;;;;;;7.25;3.85;;;;;;;8.00;49.05;101217.47;5033701;28;20273;-65
2022/03/25 03:01:30;;;;;;;10.20;4.53;;;;;;;7.85;49.68;101222.53;5033754;28;20052;-65
2022/03/25 03:04:01;;;;;;;9.52;4.22;;;;;;;8.03;50.24;101227.06;5034271;28;20053;-66
2022/03/25 03:06:31;;;;;;;8.68;3.70;;;;;;;8.16;49.26;101223.69;5033889;28;20053;-65
2022/03/25 03:09:04;;;;;;;9.10;4.30;;;;;;;8.26;49.20;101227.25;5033687;28;20053;-65
2022/03/25 03:11:35;;;;;;;9.32;4.40;;;;;;;8.40;49.27;101217.84;5033755;28;20357;-66
2022/03/25 03:14:06;;;;;;;6.07;4.05;;;;;;;8.55;48.98;101204.94;5033341;28;20105;-65
2022/03/25 03:16:37;;;;;;;10.93;4.80;;;;;;;8.79;48.32;101213.81;5033093;28;20121;-65
2022/03/25 03:19:10;;;;;;;8.02;4.13;;;;;;;8.82;47.78;101221.63;5034028;28;20292;-65
2022/03/25 03:21:41;;;;;;;8.50;4.60;;;;;;;8.96;47.70;101217.38;5033850;28;20283;-65
2022/03/25 03:24:14;;;;;;;7.88;4.35;;;;;;;9.12;46.99;101214.84;5033659;28;20369;-66
2022/03/25 03:26:44;;;;;;;9.38;4.82;;;;;;;9.22;46.99;101216.63;5033922;28;20084;-65
2022/03/25 03:29:15;;;;;;;9.93;4.10;;;;;;;8.98;46.85;101213.03;5033559;28;20228;-65
2022/03/25 03:31:46;;;;;;;8.48;4.07;;;;;;;9.10;47.69;101200.94;5033600;28;20080;-65
2022/03/25 03:34:16;;;;;;;9.20;4.43;;;;;;;9.11;47.74;101197.44;5033603;28;20061;-65
2022/03/25 03:36:47;;;;;;;8.73;4.35;;;;;;;9.09;47.82;101199.19;5033554;28;20246;-65
2022/03/25 03:39:19;;;;;;;11.05;4.50;;;;;;;9.13;47.40;101200.94;5033765;28;20042;-65
2022/03/25 03:41:50;;;;;;;9.73;4.78;;;;;;;9.02;47.64;101188.72;5033494;28;20045;-65
2022/03/25 03:44:23;;;;;;;12.95;4.68;;;;;;;8.96;47.59;101193.91;5033701;28;20396;-65
2022/03/25 03:46:53;;;;;;;11.18;4.88;;;;;;;8.69;47.94;101198.97;5033520;28;20339;-65
2022/03/25 03:49:24;;;;;;;10.38;4.47;;;;;;;8.56;48.21;101184.97;5035613;28;20053;-65
2022/03/25 03:51:55;;;;;;;8.90;4.65;;;;;;;8.64;48.22;101192.00;5037330;28;20120;-65
2022/03/25 03:54:27;;;;;;;11.23;4.80;;;;;;;8.81;48.04;101183.38;5035973;28;20084;-65
2022/03/25 03:56:58;;;;;;;11.98;4.00;;;;;;;8.56;48.34;101188.47;5037123;28;20355;-66
2022/03/25 03:59:29;;;;;;;11.88;4.47;;;;;;;8.35;48.85;101201.28;5036515;28;20061;-66
2022/03/25 04:02:00;;;;;;;8.68;4.07;;;;;;;7.78;49.22;101117.53;5036847;28;20049;-64
2022/03/25 04:04:30;;;;;;;10.13;4.68;;;;;;;8.06;49.71;101191.50;5036439;28;20041;-65
2022/03/25 04:07:01;;;;;;;7.78;4.35;;;;;;;7.95;49.70;101188.81;5036715;28;20053;-66
2022/03/25 04:09:33;;;;;;;12.23;4.07;;;;;;;7.91;50.06;101175.75;5036586;28;20049;-65
2022/03/25 04:12:05;;;;;;;6.85;3.38;;;;;;;7.81;49.91;101174.78;5036619;28;20792;-64
2022/03/25 04:14:35;;;;;;;13.65;3.78;;;;;;;7.92;50.17;101177.50;5036769;28;20059;-64
2022/03/25 04:17:06;;;;;;;9.95;4.03;;;;;;;8.01;50.50;101187.97;5036676;28;20077;-65
2022/03/25 04:19:37;;;;;;;9.85;4.35;;;;;;;8.29;49.82;101172.63;5036435;28;20116;-64
2022/03/25 04:22:08;;;;;;;10.45;4.55;;;;;;;8.56;49.46;101157.22;5036328;28;20113;-65
2022/03/25 04:24:40;;;;;;;7.40;4.15;;;;;;;8.80;49.23;101147.78;5036459;28;20068;-64
2022/03/25 04:27:11;;;;;;;15.50;4.53;;;;;;;8.90;48.75;101152.16;5035949;28;20049;-64
2022/03/25 04:29:41;;;;;;;11.85;4.32;;;;;;;8.93;48.30;101141.75;5036312;28;20057;-65
2022/03/25 04:32:12;;;;;;;12.88;4.88;;;;;;;8.73;48.30;101138.19;5036123;28;20064;-64
2022/03/25 04:34:42;;;;;;;13.70;5.18;;;;;;;8.74;48.77;101145.16;5036169;28;20061;-64
2022/03/25 04:37:13;;;;;;;13.07;4.85;;;;;;;8.49;48.62;101139.81;5036476;28;20054;-64
2022/03/25 04:39:45;;;;;;;8.82;4.32;;;;;;;8.18;49.38;101144.75;5036246;28;20229;-64
2022/03/25 04:42:16;;;;;;;15.23;4.30;;;;;;;7.63;50.19;101136.47;5036094;28;20264;-64
2022/03/25 04:44:46;;;;;;;10.40;4.90;;;;;;;7.27;51.19;101124.84;5034365;28;20054;-63
2022/03/25 04:47:17;;;;;;;9.43;4.80;;;;;;;7.20;52.06;101123.03;5035962;28;20049;-64
2022/03/25 04:49:48;;;;;;;8.20;4.28;;;;;;;7.22;52.55;101113.53;5036517;28;20124;-63
2022/03/25 04:52:18;;;;;;;9.07;4.50;;;;;;;7.34;53.01;101113.66;5035642;28;20116;-63
2022/03/25 04:54:50;;;;;;;10.48;4.30;;;;;;;7.54;52.42;101115.59;5035800;28;20232;-64
2022/03/25 04:57:21;;;;;;;26.10;8.18;;;;;;;7.62;52.35;101094.84;5036038;28;20111;-63
2022/03/25 04:59:52;;;;;;;11.15;4.72;;;;;;;7.66;52.36;101107.91;5035113;28;20064;-63
2022/03/25 05:02:23;;;;;;;8.27;4.13;;;;;;;6.97;52.08;101030.97;5034445;28;20108;-63
2022/03/25 05:04:55;;;;;;;9.88;4.32;;;;;;;7.32;52.43;101124.91;5035877;28;20091;-63
2022/03/25 05:07:44;;;;;;;7.43;3.88;;;;;;;7.04;53.15;101110.69;5036230;28;20850;-62
2022/03/25 05:10:16;;;;;;;9.10;4.30;;;;;;;7.09;52.49;101109.91;5036088;28;20108;-62
2022/03/25 05:12:47;;;;;;;6.97;4.03;;;;;;;7.37;51.99;101119.75;5034297;28;20052;-62
2022/03/25 05:15:18;;;;;;;12.20;5.20;;;;;;;7.57;51.51;101105.22;5035232;28;20068;-62
2022/03/25 05:17:51;;;;;;;11.73;4.90;;;;;;;7.81;51.05;101116.69;5035192;28;20340;-62
2022/03/25 05:20:22;;;;;;;16.85;4.50;;;;;;;7.89;51.15;101115.03;5034702;28;20369;-64
2022/03/25 05:22:53;;;;;;;9.35;3.97;;;;;;;7.81;50.52;101106.28;5035713;28;20112;-61
2022/03/25 05:25:25;;;;;;;9.52;3.80;;;;;;;7.69;49.86;101115.72;5035433;28;20045;-61
2022/03/25 05:27:57;;;;;;;8.60;3.92;;;;;;;7.44;50.57;101091.22;5035014;28;20049;-60
2022/03/25 05:30:46;;;;;;;9.45;4.20;;;;;;;7.49;50.85;101106.88;5141888;27;20418;-62
2022/03/25 05:33:16;;;;;;;8.75;4.50;;;;;;;7.45;50.89;101107.69;5122319;28;20059;-63
2022/03/25 05:35:47;;;;;;;9.52;4.70;;;;;;;7.64;50.99;101129.53;5122052;28;20040;-62
2022/03/25 05:38:18;;;;;;;12.02;4.13;;;;;;;7.73;50.77;101135.69;5121638;28;20070;-62
2022/03/25 05:40:49;;;;;;;7.60;3.50;;;;;;;7.65;50.94;101137.34;5121253;28;20074;-63
2022/03/25 05:43:19;;;;;;;8.27;3.90;;;;;;;7.37;51.24;101140.56;5121382;28;20086;-62
2022/03/25 05:45:52;;;;;;;10.13;4.35;;;;;;;6.95;51.53;101141.78;5122158;28;20110;-62
2022/03/25 05:48:22;;;;;;;9.35;4.32;;;;;;;6.68;52.22;101137.97;5121712;28;20126;-61
2022/03/25 05:50:53;;;;;;;6.60;3.88;;;;;;;6.34;52.46;101106.34;5121717;28;20059;-63
2022/03/25 05:53:24;;;;;;;12.48;3.45;;;;;;;6.45;53.19;101130.72;5121591;28;20083;-64
2022/03/25 05:55:54;;;;;;;9.63;3.85;;;;;;;6.21;53.81;101118.25;5121474;28;20103;-64
2022/03/25 05:58:25;;;;;;;8.35;3.67;;;;;;;6.26;53.84;101119.22;5121223;28;20349;-63
2022/03/25 06:00:57;;;;;;;8.77;3.10;;;;;;;6.39;53.58;101112.50;5121504;28;20237;-64
2022/03/25 06:03:30;;;;;;;10.25;3.55;;;;;;;6.45;53.41;101104.78;5121678;28;20107;-63
2022/03/25 06:06:03;;;;;;;9.63;3.20;;;;;;;6.52;53.33;101091.88;5121683;28;20062;-63
2022/03/25 06:08:34;;;;;;;8.55;3.97;;;;;;;6.50;53.53;101075.41;5121480;28;20786;-64
2022/03/25 06:11:05;;;;;;;8.38;4.70;;;;;;;6.43;53.69;101075.31;5120696;28;20064;-63
2022/03/25 06:13:36;;;;;;;5.88;3.30;;;;;;;6.30;54.34;101083.78;5119174;28;20134;-63
2022/03/25 06:16:08;;;;;;;9.05;3.65;;;;;;;6.10;54.80;101080.03;5121252;28;20283;-62
2022/03/25 06:18:39;;;;;;;11.75;4.40;;;;;;;5.92;55.54;101065.91;5121139;28;20059;-62
2022/03/25 06:21:10;;;;;;;8.55;4.85;;;;;;;5.97;55.75;101079.84;5121561;28;20338;-62
2022/03/25 06:23:40;;;;;;;11.38;3.95;;;;;;;5.94;55.94;101064.25;5120004;28;20597;-62
2022/03/25 06:26:11;;;;;;;6.97;4.30;;;;;;;5.96;56.54;101072.03;5120061;28;20051;-62
2022/03/25 06:28:41;;;;;;;10.60;4.53;;;;;;;5.98;56.66;101066.03;5120996;28;20401;-62
2022/03/25 06:31:14;;;;;;;8.57;3.95;;;;;;;6.03;56.53;101069.56;5120949;28;20258;-62
2022/03/25 06:33:45;;;;;;;8.13;3.78;;;;;;;6.04;56.70;101071.31;5120834;28;20099;-62
2022/03/25 06:36:15;;;;;;;10.15;4.05;;;;;;;6.01;56.63;101076.44;5121278;28;20079;-62
2022/03/25 06:38:46;;;;;;;7.75;3.22;;;;;;;5.90;56.98;101059.81;5120958;28;20051;-61
2022/03/25 06:41:17;;;;;;;7.50;4.32;;;;;;;5.67;57.16;101061.19;5111885;28;20048;-61
2022/03/25 06:43:47;;;;;;;13.50;6.18;;;;;;;5.49;57.80;101061.72;5107706;28;20368;-61
2022/03/25 06:46:20;;;;;;;12.80;5.05;;;;;;;5.30;58.13;101078.69;5107337;28;20433;-60
2022/03/25 06:48:52;;;;;;;12.55;4.70;;;;;;;5.21;58.99;101073.31;5106927;28;20064;-61
2022/03/25 06:51:23;;;;;;;15.00;4.65;;;;;;;5.09;59.15;101077.44;5106489;28;20047;-60
2022/03/25 06:53:54;;;;;;;14.82;5.10;;;;;;;4.95;59.84;101068.53;5107750;28;20056;-60
2022/03/25 06:56:25;;;;;;;8.23;4.65;;;;;;;4.94;59.83;101070.25;5105333;28;20111;-61
2022/03/25 06:58:57;;;;;;;9.85;4.22;;;;;;;4.86;60.34;101060.56;5106723;28;20127;-60
2022/03/25 07:01:32;;;;;;;11.75;4.72;;;;;;;4.81;60.57;101057.88;5106517;28;20400;-60
2022/03/25 07:04:04;;;;;;;7.75;4.30;;;;;;;4.88;60.23;101064.06;5106608;28;20261;-60
2022/03/25 07:06:36;;;;;;;11.93;4.50;;;;;;;4.83;60.40;101056.22;5105896;28;20088;-60
2022/03/25 07:09:07;;;;;;;11.70;4.15;;;;;;;4.76;60.24;101065.56;5106239;28;20050;-60
2022/03/25 07:11:38;;;;;;;13.07;4.68;;;;;;;4.83;60.14;101065.69;5106755;28;20086;-60
2022/03/25 07:14:09;;;;;;;14.35;4.40;;;;;;;4.81;60.15;101067.38;5106336;28;20305;-60
2022/03/25 07:16:43;;;;;;;10.30;4.55;;;;;;;4.75;60.15;101069.00;5106471;28;20410;-60
2022/03/25 07:19:14;;;;;;;8.52;4.32;;;;;;;4.71;60.03;101056.84;5106291;28;20396;-60
2022/03/25 07:21:44;;;;;;;10.27;4.80;;;;;;;4.61;59.95;101064.38;5106260;28;20082;-60
2022/03/25 07:24:15;;;;;;;18.08;6.57;;;;;;;4.64;60.42;101070.50;5106176;28;20082;-60
2022/03/25 07:26:46;;;;;;;23.70;8.13;;;;;;;4.66;60.30;101081.75;5105012;28;20116;-60
2022/03/25 07:29:16;;;;;;;19.45;6.45;;;;;;;4.63;60.24;101084.28;5103040;28;20079;-60
2022/03/25 07:31:48;;;;;;;17.50;8.50;;;;;;;4.62;60.19;101092.00;5106449;28;19927;-60
2022/03/25 07:34:19;;;;;;;13.07;5.15;;;;;;;4.54;60.66;101084.97;5105618;28;20060;-61
2022/03/25 07:36:50;;;;;;;12.57;5.75;;;;;;;4.47;61.22;101082.22;5106142;28;20116;-60
2022/03/25 07:39:21;;;;;;;18.13;6.82;;;;;;;4.42;61.21;101089.88;5105684;28;20060;-60
2022/03/25 07:41:52;;;;;;;18.23;6.50;;;;;;;4.47;61.73;101095.16;5106459;28;20055;-60
2022/03/25 07:44:23;;;;;;;15.13;6.25;;;;;;;4.45;61.83;101094.25;5106189;28;20114;-60
2022/03/25 07:46:55;;;;;;;22.42;7.70;;;;;;;4.47;61.62;101097.75;5106518;28;20211;-60
2022/03/25 07:49:26;;;;;;;22.13;7.65;;;;;;;4.40;61.58;101090.69;5105955;28;20085;-60
2022/03/25 07:51:56;;;;;;;20.85;9.35;;;;;;;4.40;61.64;101090.69;5105020;28;20060;-60
2022/03/25 07:54:27;;;;;;;21.15;8.80;;;;;;;4.30;61.66;101095.66;5105271;28;20044;-60
2022/03/25 07:56:58;;;;;;;12.48;6.80;;;;;;;4.13;62.18;101086.63;5105046;28;20047;-61
2022/03/25 07:59:29;;;;;;;18.65;7.57;;;;;;;3.58;61.98;101028.47;5105074;28;20048;-60
2022/03/25 08:02:02;;;;;;;16.08;7.50;;;;;;;3.99;62.54;101103.53;5105652;28;20051;-60
2022/03/25 08:04:33;;;;;;;12.45;6.07;;;;;;;3.86;62.46;101108.41;5105015;28;20048;-60
2022/03/25 08:07:03;;;;;;;9.73;5.68;;;;;;;3.74;63.30;101095.19;5105425;28;20040;-60
2022/03/25 08:09:34;;;;;;;9.98;5.68;;;;;;;3.72;63.52;101114.97;5105482;28;20107;-60
2022/03/25 08:12:05;;;;;;;10.55;5.32;;;;;;;3.65;64.30;101113.06;5105148;28;20052;-60
2022/03/25 08:14:36;;;;;;;11.18;5.78;;;;;;;3.57;64.63;101133.53;5105490;28;20291;-60
2022/03/25 08:17:08;;;;;;;12.60;5.80;;;;;;;3.48;64.97;101119.50;5104942;28;20119;-60
2022/03/25 08:19:39;;;;;;;12.70;4.88;;;;;;;3.32;65.68;101129.44;5104593;28;20120;-59
2022/03/25 08:22:10;;;;;;;9.88;5.63;;;;;;;3.24;66.73;101136.09;5104731;28;20047;-59
2022/03/25 08:30:15;;;;;;;12.63;5.72;;;;;;;2.61;67.93;101099.88;5104619;28;20044;-60
2022/03/25 08:32:48;;;;;;;11.85;5.55;;;;;;;2.94;68.48;101162.78;5104073;28;20146;-60
2022/03/25 08:35:18;;;;;;;9.90;5.63;;;;;;;2.92;68.67;101164.47;5104122;28;20071;-60
2022/03/25 08:37:49;;;;;;;11.60;6.50;;;;;;;2.85;68.99;101170.28;5104980;28;20058;-60
2022/03/25 08:40:19;;;;;;;12.02;6.18;;;;;;;2.84;69.17;101176.25;5104667;28;20051;-60
2022/03/25 08:42:50;;;;;;;10.40;5.40;;;;;;;2.89;69.15;101179.84;5104940;28;20075;-59
2022/03/25 08:45:21;;;;;;;14.13;5.50;;;;;;;2.77;69.59;101153.66;5104532;28;20075;-59
2022/03/25 08:47:53;;;;;;;9.20;5.82;;;;;;;2.99;69.56;101174.13;5104847;28;20101;-59
2022/03/25 08:50:24;;;;;;;11.00;5.32;;;;;;;3.14;69.26;101175.41;5104775;28;20048;-59
2022/03/25 08:52:55;;;;;;;12.63;5.28;;;;;;;2.88;69.30;101130.78;5104744;28;20118;-60
2022/03/25 08:55:26;;;;;;;12.45;5.85;;;;;;;3.09;68.67;101166.66;5104810;28;20059;-60
2022/03/25 08:57:57;;;;;;;10.15;5.30;;;;;;;3.16;68.73;101174.59;5104224;28;20083;-60
2022/03/25 09:00:27;;;;;;;13.82;6.53;;;;;;;3.14;68.79;101165.06;5103709;28;20052;-60
2022/03/25 09:03:00;;;;;;;13.10;6.10;;;;;;;3.06;68.91;101171.72;5104572;28;20269;-60
2022/03/25 09:05:31;;;;;;;15.68;6.30;;;;;;;3.00;69.32;101157.81;5104101;28;20055;-60
2022/03/25 09:08:01;;;;;;;17.50;6.53;;;;;;;3.06;69.23;101171.72;5103736;28;20094;-60
2022/03/25 09:10:32;;;;;;;9.63;5.25;;;;;;;3.05;69.00;101165.69;5104518;28;20354;-59
2022/03/25 09:13:02;;;;;;;11.52;5.93;;;;;;;3.09;68.93;101176.97;5104530;28;20060;-59
2022/03/25 09:15:34;;;;;;;13.45;6.75;;;;;;;3.05;69.19;101175.16;5104268;28;20246;-60
2022/03/25 09:18:07;;;;;;;12.77;7.20;;;;;;;2.99;69.22;101187.03;5104572;28;20059;-59
2022/03/25 09:20:38;;;;;;;13.57;6.75;;;;;;;2.96;69.54;101189.53;5104193;28;20052;-59
2022/03/25 09:23:08;;;;;;;13.43;6.80;;;;;;;2.89;69.54;101187.59;5102250;28;20066;-59
2022/03/25 09:25:39;;;;;;;17.08;6.43;;;;;;;2.86;69.62;101195.25;5103018;28;20058;-60
2022/03/25 09:28:10;;;;;;;15.10;6.60;;;;;;;2.75;69.32;101176.00;5103689;28;20079;-60
2022/03/25 09:30:41;;;;;;;16.20;6.15;;;;;;;2.81;69.70;101187.38;5103982;28;20071;-60
2022/03/25 09:33:13;;;;;;;14.50;6.88;;;;;;;2.77;69.08;101175.22;5104064;28;20127;-60
2022/03/25 09:35:45;;;;;;;24.23;9.93;;;;;;;2.89;68.70;101179.84;5104022;28;20048;-59
2022/03/25 09:38:16;;;;;;;18.60;6.88;;;;;;;2.93;68.21;101181.69;5102834;28;20075;-60
2022/03/25 09:40:49;;;;;;;11.02;5.28;;;;;;;2.94;67.99;101182.56;5103128;28;20241;-60
2022/03/25 09:43:22;;;;;;;9.13;5.05;;;;;;;3.00;67.85;101188.78;5104151;28;20097;-59
2022/03/25 09:45:52;;;;;;;10.00;5.03;;;;;;;3.01;67.55;101194.84;5104452;28;20059;-60
2022/03/25 09:48:25;;;;;;;8.68;4.38;;;;;;;2.97;67.01;101193.88;5104022;28;20112;-59
2022/03/25 09:50:55;;;;;;;11.77;4.63;;;;;;;2.92;67.30;101200.63;5103639;28;20120;-59
2022/03/25 09:53:43;;;;;;;6.13;4.43;;;;;;;2.87;66.97;101197.03;5103881;28;20114;-59
2022/03/25 09:56:13;;;;;;;9.10;4.47;;;;;;;2.89;67.24;101190.16;5103850;28;20131;-59
2022/03/25 09:58:44;;;;;;;7.47;5.07;;;;;;;2.91;66.80;101192.81;5103979;28;20051;-59
2022/03/25 10:01:15;;;;;;;7.07;4.95;;;;;;;2.90;67.08;101186.78;5103027;28;20372;-59
2022/03/25 10:03:47;;;;;;;8.55;5.07;;;;;;;2.87;67.03;101191.88;5103639;28;20089;-59
2022/03/25 10:06:18;;;;;;;12.02;5.57;;;;;;;2.92;67.21;101190.28;5103878;28;20746;-59
2022/03/25 10:09:02;;;;;;;11.73;5.30;;;;;;;2.82;67.00;101172.75;5104315;28;20057;-59
2022/03/25 10:11:33;;;;;;;11.38;5.03;;;;;;;2.87;67.37;101184.13;5103718;28;20224;-60
2022/03/25 10:14:23;;;;;;;9.70;5.32;;;;;;;2.88;67.44;101183.28;5103910;28;20060;-59
2022/03/25 10:16:55;;;;;;;9.05;5.55;;;;;;;2.67;67.81;101164.56;5106725;28;20058;-58
2022/03/25 10:19:33;;;;;;;11.93;5.63;;;;;;;2.74;68.32;101179.41;5107399;28;20094;-58
2022/03/25 10:22:05;;;;;;;9.90;4.70;;;;;;;2.75;68.94;101157.94;5107628;28;20111;-58
2022/03/25 10:24:39;;;;;;;9.25;5.03;;;;;;;2.79;69.76;101163.22;5107332;28;20044;-58
2022/03/25 10:27:17;;;;;;;8.40;4.90;;;;;;;2.79;69.61;101167.50;5107152;28;20427;-58
2022/03/25 10:29:50;;;;;;;12.10;5.47;;;;;;;2.83;70.10;101159.03;5107444;28;20086;-59
2022/03/25 10:32:25;;;;;;;9.10;5.40;;;;;;;2.91;69.48;101162.69;5106909;28;20053;-59
2022/03/25 10:35:12;;;;;;;10.75;5.40;;;;;;;2.68;69.74;101117.28;5107473;28;20081;-59
2022/03/25 10:37:58;;;;;;;9.40;5.63;;;;;;;2.93;69.75;101148.13;5107385;28;20040;-58
2022/03/25 10:40:29;;;;;;;10.70;5.05;;;;;;;2.94;69.47;101152.47;5107209;28;20446;-57
2022/03/25 10:43:11;;;;;;;9.70;5.03;;;;;;;2.99;69.80;101156.03;5106982;28;20107;-59
2022/03/25 10:45:42;;;;;;;9.57;5.00;;;;;;;2.78;69.60;101108.97;5107022;28;20402;-59
2022/03/25 10:48:14;;;;;;;6.95;4.80;;;;;;;3.01;69.75;101149.22;5106883;28;20040;-60
2022/03/25 10:51:01;;;;;;;8.10;4.60;;;;;;;2.99;69.87;101145.72;5106687;28;20111;-59
2022/03/25 10:53:34;;;;;;;6.97;4.60;;;;;;;2.99;70.24;101140.56;5106159;28;20106;-59
2022/03/25 10:56:07;;;;;;;7.55;4.82;;;;;;;2.92;70.37;101128.34;5106661;28;20086;-58
2022/03/25 10:58:38;;;;;;;8.65;4.75;;;;;;;2.93;70.22;101129.19;5106850;28;20063;-59
2022/03/25 11:01:09;;;;;;;7.15;4.63;;;;;;;2.86;70.79;101117.81;5106718;28;20063;-59
2022/03/25 11:03:42;;;;;;;8.38;4.68;;;;;;;2.93;70.68;101135.22;5106707;28;20352;-58
2022/03/25 11:06:17;;;;;;;7.95;4.40;;;;;;;2.92;70.95;101142.91;5106633;28;20066;-59
2022/03/25 11:08:48;;;;;;;7.22;4.88;;;;;;;2.83;71.30;101130.63;5106897;28;20123;-58
2022/03/25 11:11:19;;;;;;;7.63;4.80;;;;;;;2.84;71.89;101132.38;5106812;28;20110;-59
2022/03/25 11:13:50;;;;;;;8.65;5.03;;;;;;;2.63;72.21;101119.72;5106270;28;20080;-60
2022/03/25 11:16:21;;;;;;;7.97;4.95;;;;;;;2.45;73.04;101122.66;5106411;28;20066;-59
2022/03/25 11:18:54;;;;;;;10.00;4.85;;;;;;;2.39;73.92;101125.03;5106497;28;20098;-58
2022/03/25 11:21:28;;;;;;;7.63;5.32;;;;;;;2.06;74.72;101089.63;5106125;28;20048;-58
2022/03/25 11:24:03;;;;;;;8.32;5.28;;;;;;;2.02;75.08;101087.81;5106049;28;20347;-59
2022/03/25 11:26:38;;;;;;;7.07;5.43;;;;;;;2.26;75.60;101112.59;5105992;28;20059;-59
2022/03/25 11:29:14;;;;;;;14.18;6.53;;;;;;;2.19;75.78;101100.31;5105684;28;20062;-59
2022/03/25 11:32:08;;;;;;;9.35;5.50;;;;;;;2.10;76.18;101099.22;5105793;28;20089;-59
2022/03/25 11:34:43;;;;;;;11.48;5.50;;;;;;;2.03;76.67;101094.69;5106052;28;20063;-58
2022/03/25 11:37:21;;;;;;;14.32;6.80;;;;;;;1.81;76.97;101077.66;5106282;28;20116;-58
2022/03/25 11:40:29;;;;;;;11.90;6.43;;;;;;;1.92;77.85;101096.03;5106564;28;20269;-59
2022/03/25 11:43:03;;;;;;;17.83;8.15;;;;;;;1.86;77.75;101090.69;5106189;28;20051;-61
2022/03/25 11:45:36;;;;;;;21.00;10.80;;;;;;;1.83;78.24;101086.31;5103772;28;20052;-58
2022/03/25 11:48:35;;;;;;;20.02;10.43;;;;;;;1.78;78.88;101087.00;5102792;28;20099;-58
2022/03/25 11:51:33;;;;;;;26.40;12.95;;;;;;;1.77;78.93;101085.25;5105425;28;20047;-59
2022/03/25 11:54:38;;;;;;;32.50;15.43;;;;;;;1.73;78.99;101079.13;5105616;28;20066;-60
2022/03/25 11:57:23;;;;;;;33.55;16.98;;;;;;;1.71;79.19;101086.78;5104842;28;20059;-60
2022/03/25 11:59:55;;;;;;;27.33;15.15;;;;;;;1.67;79.51;101079.81;5103277;28;20085;-60